Etusivu
METAR-TAF:

METAR-TAF

Lentoasemat :

Bahrainin kansainvälinen lentoasema

Bahrain, Bahrain

Leveyspiiri: 26-16N, Pituuspiiri: 050-39E, korkeus merenpinnasta: 2 m

Tämänhetkinen sää

Tämä raportti tehtiin 9 minuuttia sitten, kello 21.30 UTC
Tuuli 4 kn idästä
Lämpötila 33°C
Kosteus 75%
Ilmanpaine 1005 hPa
Näkyvyys 10 km tai enemmän
ei pilviä alle 1500 m:ssä eikä cumulonimbus-pilviä

METAR: OBBI 182130Z 10004KT CAVOK 33/28 Q1005 NOSIG

Aika: 00:39 (21:39 UTC)

Sääennuste

Tämä raportti tehtiin 4 tuntia ja 39 minuuttia sitten, kello 17.00 UTC
Ennuste voimassa 18. päivästä klo 18 UTC - 20. päivään klo 00 UTC
Tuuli 8 kn idästä
Näkyvyys: 8000 m
Ajoittain
18. päivästä klo 21 UTC - 19. päivään klo 06 UTC
Näkyvyys: 5000 m
usvaa
Todennäköisyys 30% :
Ajoittain
19. päivästä klo 01 UTC - 19. päivään klo 04 UTC
Näkyvyys: 3000 m
Hajanaisia pilviä 1000 ft:n korkeudessa
utua

TAF: OBBI 181700Z 1818/2000 09008KT 8000 NSC TEMPO 1821/1906 5000 HZ PROB30 TEMPO 1901/1904 3000 BR SCT010

Säähavainnot ja -ennusteet yli 4000 lentoasemalta (METAR- ja TAF-raportit).

Käytössä olevat sääasemat on merkitty karttaan keltaisilla ja punaisilla pisteillä.

Aseta hiiri pisteen päälle nähdäksesi sääaseman nimen.

Klikkaa sitten nähdäksesi säähavainnot ja -ennusteet.

Kartan vaihtaminen: klikkaa mustalla rastilla varustettuja vihreitä pisteitä, niin voit zoomata sisään; viivalla varustettua vihreää pistettä, niin voit zoomata ulos tai vihreitä nuolia, niin pääset viereisille kartoille.


METAR-TAF: